createdAt,value
2019-05-07T00:01:56.867Z,5.97
2019-05-07T00:05:12.047Z,6.02
2019-05-07T00:08:25.828Z,6.03
2019-05-07T00:11:39.753Z,6.07
2019-05-07T00:15:00.941Z,6.09
2019-05-07T00:18:08.974Z,6.08
2019-05-07T00:21:23.464Z,6.04
2019-05-07T00:24:37.072Z,6.02
2019-05-07T00:27:52.334Z,5.99
2019-05-07T00:31:06.070Z,5.97
2019-05-07T00:34:22.089Z,6.01
2019-05-07T00:37:43.159Z,6.02
2019-05-07T00:41:16.242Z,5.99
2019-05-07T00:44:32.693Z,6.01
2019-05-07T00:47:46.143Z,6.03
2019-05-07T00:51:18.061Z,6.05
2019-05-07T00:54:32.545Z,6.08
2019-05-07T00:57:46.104Z,6.05
2019-05-07T01:00:59.601Z,6.07
2019-05-07T01:04:13.217Z,6.04
2019-05-07T01:07:26.819Z,6.00
2019-05-07T01:10:41.973Z,6.00
2019-05-07T01:13:55.559Z,5.94
2019-05-07T01:17:09.440Z,5.95
2019-05-07T01:20:22.947Z,5.90
2019-05-07T01:23:36.638Z,5.88
2019-05-07T01:26:50.345Z,5.82
2019-05-07T01:30:04.906Z,5.85
2019-05-07T01:33:44.516Z,5.89
2019-05-07T01:36:58.325Z,5.93
2019-05-07T01:40:12.326Z,5.90
2019-05-07T01:43:25.926Z,5.86
2019-05-07T01:46:39.421Z,5.90
2019-05-07T01:49:55.114Z,5.92
2019-05-07T01:53:08.681Z,5.87
2019-05-07T01:56:22.982Z,5.82
2019-05-07T01:59:36.566Z,5.87
2019-05-07T02:02:56.001Z,5.87
2019-05-07T02:06:32.792Z,5.82
2019-05-07T02:10:11.989Z,5.81
2019-05-07T02:13:25.544Z,5.79
2019-05-07T02:16:39.416Z,5.81
2019-05-07T02:19:52.909Z,5.78
2019-05-07T02:23:06.480Z,5.75
2019-05-07T02:26:22.378Z,5.72
2019-05-07T02:29:38.114Z,5.67
2019-05-07T02:32:54.026Z,5.66
2019-05-07T02:36:06.963Z,5.62
2019-05-07T02:39:27.363Z,5.58
2019-05-07T02:42:44.073Z,5.59
2019-05-07T02:46:26.471Z,5.56
2019-05-07T02:49:43.814Z,5.50
2019-05-07T02:53:04.382Z,5.45
2019-05-07T02:56:23.538Z,5.36
2019-05-07T02:59:36.782Z,5.37
2019-05-07T03:02:52.975Z,5.43
2019-05-07T03:06:06.153Z,5.49
2019-05-07T03:09:22.606Z,5.50
2019-05-07T03:12:35.115Z,5.51
2019-05-07T03:15:48.735Z,5.47
2019-05-07T03:19:04.117Z,5.49
2019-05-07T03:22:17.819Z,5.47
2019-05-07T03:25:53.807Z,5.45
2019-05-07T03:29:13.094Z,5.39
2019-05-07T03:32:38.190Z,5.41
2019-05-07T03:35:56.015Z,5.41
2019-05-07T03:39:09.353Z,5.38
2019-05-07T03:42:23.635Z,5.28
2019-05-07T03:45:57.153Z,5.30
2019-05-07T03:49:26.144Z,5.34
2019-05-07T03:52:42.632Z,5.36
2019-05-07T03:55:55.689Z,5.31
2019-05-07T03:59:13.038Z,5.34
2019-05-07T04:02:26.685Z,5.38
2019-05-07T04:05:43.028Z,5.37
2019-05-07T04:08:55.685Z,5.36
2019-05-07T04:12:09.295Z,5.31
2019-05-07T04:15:23.523Z,5.33
2019-05-07T04:18:37.534Z,5.38
2019-05-07T04:21:53.404Z,5.41
2019-05-07T04:25:24.714Z,5.47
2019-05-07T04:29:05.543Z,5.48
2019-05-07T04:32:23.171Z,5.52
2019-05-07T04:35:43.375Z,5.41
2019-05-07T04:38:57.121Z,5.38
2019-05-07T04:42:13.251Z,5.46
2019-05-07T04:45:26.335Z,5.56
2019-05-07T04:48:39.843Z,5.61
2019-05-07T04:52:04.558Z,5.67
2019-05-07T04:55:18.151Z,5.73
2019-05-07T04:58:33.842Z,5.84
2019-05-07T05:02:09.373Z,5.91
2019-05-07T05:05:24.061Z,6.01
2019-05-07T05:08:37.510Z,6.15
2019-05-07T05:11:53.058Z,6.26
2019-05-07T05:16:42.621Z,6.41
2019-05-07T05:19:56.502Z,6.38
2019-05-07T05:23:17.908Z,6.46
2019-05-07T05:26:32.483Z,6.50
2019-05-07T05:29:46.198Z,6.54
2019-05-07T05:33:02.207Z,6.67
2019-05-07T05:36:16.927Z,6.78
2019-05-07T05:39:32.038Z,6.87
2019-05-07T05:42:52.797Z,6.98
2019-05-07T05:46:06.905Z,7.02
2019-05-07T05:49:22.789Z,7.10
2019-05-07T05:52:43.441Z,7.18
2019-05-07T05:55:59.433Z,7.33
2019-05-07T05:59:44.985Z,7.49
2019-05-07T06:02:53.945Z,7.71
2019-05-07T06:06:14.340Z,7.95
2019-05-07T06:09:38.981Z,8.15
2019-05-07T06:13:12.438Z,8.31
2019-05-07T06:16:32.737Z,8.44
2019-05-07T06:19:51.861Z,8.53
2019-05-07T06:23:33.086Z,8.58
2019-05-07T06:26:46.701Z,8.78
2019-05-07T06:30:02.870Z,8.96
2019-05-07T06:33:15.793Z,9.10
2019-05-07T06:36:32.860Z,9.24
2019-05-07T06:40:08.215Z,9.45
2019-05-07T06:43:44.627Z,9.57
2019-05-07T06:46:58.472Z,9.67
2019-05-07T06:50:12.610Z,9.87
2019-05-07T06:53:28.073Z,10.12
2019-05-07T06:56:42.170Z,10.30
2019-05-07T06:59:59.725Z,10.35
2019-05-07T07:03:35.955Z,10.51
2019-05-07T07:07:08.056Z,10.73
2019-05-07T07:10:32.347Z,10.94
2019-05-07T07:13:46.177Z,11.13
2019-05-07T07:17:02.184Z,11.35
2019-05-07T07:20:15.685Z,11.51
2019-05-07T07:23:29.573Z,11.36
2019-05-07T07:26:43.623Z,11.41
2019-05-07T07:30:03.820Z,11.61
2019-05-07T07:33:18.123Z,11.75
2019-05-07T07:36:36.239Z,11.90
2019-05-07T07:39:52.468Z,11.79
2019-05-07T07:43:07.145Z,11.97
2019-05-07T07:46:22.174Z,12.15
2019-05-07T07:49:36.022Z,12.15
2019-05-07T07:52:49.845Z,12.07
2019-05-07T07:56:48.289Z,12.21
2019-05-07T07:59:56.950Z,12.18
2019-05-07T08:03:13.237Z,12.19
2019-05-07T08:06:28.539Z,12.53
2019-05-07T08:09:42.768Z,12.67
2019-05-07T08:12:56.839Z,12.92
2019-05-07T08:16:12.794Z,12.85
2019-05-07T08:19:26.053Z,12.83
2019-05-07T08:22:39.684Z,12.97
2019-05-07T08:25:53.197Z,12.90
2019-05-07T08:29:06.690Z,12.58
2019-05-07T08:32:27.528Z,12.40
2019-05-07T08:36:02.687Z,12.56
2019-05-07T08:39:16.518Z,12.58
2019-05-07T08:42:32.057Z,12.53
2019-05-07T08:45:54.929Z,12.73
2019-05-07T08:49:09.347Z,12.92
2019-05-07T08:52:26.155Z,13.02
2019-05-07T08:55:39.472Z,13.13
2019-05-07T08:58:53.194Z,13.21
2019-05-07T09:02:06.906Z,13.30
2019-05-07T09:05:22.097Z,13.31
2019-05-07T09:08:36.310Z,13.10
2019-05-07T09:11:51.857Z,13.04
2019-05-07T09:15:06.811Z,13.02
2019-05-07T09:18:22.836Z,13.10
2019-05-07T09:21:38.063Z,13.32
2019-05-07T09:24:52.673Z,13.59
2019-05-07T09:28:06.763Z,13.75
2019-05-07T09:31:32.223Z,14.05
2019-05-07T09:34:46.626Z,14.24
2019-05-07T09:38:00.122Z,14.44
2019-05-07T09:41:25.823Z,14.83
2019-05-07T09:44:39.703Z,15.04
2019-05-07T09:47:53.410Z,15.13
2019-05-07T09:51:07.210Z,14.91
2019-05-07T09:54:22.984Z,14.71
2019-05-07T09:57:36.629Z,14.68
2019-05-07T10:00:50.345Z,14.64
2019-05-07T10:04:04.260Z,14.72
2019-05-07T10:07:18.202Z,14.50
2019-05-07T10:10:32.910Z,14.26
2019-05-07T10:13:58.096Z,14.26
2019-05-07T10:17:17.933Z,14.25
2019-05-07T10:20:32.799Z,14.41
2019-05-07T10:23:46.691Z,14.62
2019-05-07T10:27:02.258Z,14.70
2019-05-07T10:30:16.196Z,14.76
2019-05-07T10:33:31.790Z,14.77
2019-05-07T10:36:45.553Z,14.80
2019-05-07T10:39:59.578Z,15.23
2019-05-07T10:43:13.270Z,15.45
2019-05-07T10:46:45.782Z,15.45
2019-05-07T10:50:17.613Z,15.74
2019-05-07T10:53:32.079Z,16.06
2019-05-07T10:56:45.773Z,16.12
2019-05-07T10:59:59.554Z,16.25
2019-05-07T11:03:13.175Z,15.50
2019-05-07T11:06:27.132Z,15.01
2019-05-07T11:09:42.038Z,15.30
2019-05-07T11:12:56.161Z,15.39
2019-05-07T11:16:12.673Z,15.55
2019-05-07T11:19:26.278Z,15.69
2019-05-07T11:22:40.036Z,15.95
2019-05-07T11:25:53.744Z,15.72
2019-05-07T11:29:07.609Z,15.53
2019-05-07T11:32:21.631Z,15.48
2019-05-07T11:35:35.646Z,15.43
2019-05-07T11:38:49.494Z,15.33
2019-05-07T11:42:26.208Z,15.63
2019-05-07T11:45:54.021Z,15.70
2019-05-07T11:49:17.160Z,15.70
2019-05-07T11:52:35.869Z,15.72
2019-05-07T11:55:49.950Z,15.99
2019-05-07T11:59:04.275Z,15.99
2019-05-07T12:02:18.007Z,16.11
2019-05-07T12:05:33.253Z,16.22
2019-05-07T12:08:51.850Z,16.18
2019-05-07T12:12:02.649Z,16.40
2019-05-07T12:16:36.042Z,16.63
2019-05-07T12:19:49.978Z,16.67
2019-05-07T12:23:03.885Z,16.71
2019-05-07T12:26:17.485Z,16.50
2019-05-07T12:29:32.228Z,16.45
2019-05-07T12:32:54.422Z,16.19
2019-05-07T12:36:09.646Z,15.96
2019-05-07T12:39:23.297Z,15.96
2019-05-07T12:42:37.498Z,15.60
2019-05-07T12:45:52.511Z,15.46
2019-05-07T12:49:06.349Z,15.90
2019-05-07T12:52:34.959Z,15.82
2019-05-07T12:55:54.645Z,15.61
2019-05-07T12:59:08.876Z,15.77
2019-05-07T13:02:43.583Z,16.15
2019-05-07T13:05:56.025Z,16.29
2019-05-07T13:09:09.661Z,16.73
2019-05-07T13:12:23.310Z,16.62
2019-05-07T13:15:37.016Z,16.71
2019-05-07T13:18:52.466Z,16.77
2019-05-07T13:22:06.138Z,16.82
2019-05-07T13:25:21.605Z,16.69
2019-05-07T13:28:36.034Z,16.55
2019-05-07T13:31:54.339Z,16.78
2019-05-07T13:35:08.489Z,17.23
2019-05-07T13:38:44.681Z,16.88
2019-05-07T13:42:04.286Z,16.75
2019-05-07T13:45:41.687Z,16.61
2019-05-07T13:48:57.187Z,16.06
2019-05-07T13:52:11.824Z,15.91
2019-05-07T13:55:25.433Z,15.98
2019-05-07T13:58:39.155Z,16.09
2019-05-07T14:02:06.257Z,15.90
2019-05-07T14:05:21.761Z,15.87
2019-05-07T14:08:38.066Z,15.93
2019-05-07T14:11:52.864Z,15.98
2019-05-07T14:15:06.869Z,16.25
2019-05-07T14:18:23.229Z,16.29
2019-05-07T14:21:36.247Z,16.32
2019-05-07T14:24:50.366Z,16.54
2019-05-07T14:28:04.212Z,16.55
2019-05-07T14:31:17.918Z,16.37
2019-05-07T14:34:54.101Z,16.45
2019-05-07T14:38:13.886Z,16.36
2019-05-07T14:41:27.686Z,16.40
2019-05-07T14:44:48.364Z,16.52
2019-05-07T14:48:02.947Z,16.49
2019-05-07T14:51:17.149Z,16.40
2019-05-07T14:54:32.254Z,16.51
2019-05-07T14:57:46.289Z,16.28
2019-05-07T15:01:02.268Z,16.09
2019-05-07T15:04:15.679Z,16.22
2019-05-07T15:07:29.289Z,16.29
2019-05-07T15:10:43.338Z,16.31
2019-05-07T15:13:57.364Z,16.46
2019-05-07T15:17:24.275Z,16.37
2019-05-07T15:20:38.299Z,16.36
2019-05-07T15:23:53.994Z,16.11
2019-05-07T15:27:08.285Z,15.89
2019-05-07T15:30:23.412Z,15.96
2019-05-07T15:33:37.020Z,16.01
2019-05-07T15:36:52.608Z,16.16
2019-05-07T15:40:07.154Z,16.33
2019-05-07T15:43:21.065Z,16.58
2019-05-07T15:46:34.758Z,16.45
2019-05-07T15:49:48.260Z,16.17
2019-05-07T15:53:13.994Z,15.98
2019-05-07T15:56:27.506Z,15.98
2019-05-07T15:59:41.808Z,15.68
2019-05-07T16:03:06.281Z,15.49
2019-05-07T16:06:22.002Z,15.45
2019-05-07T16:09:44.435Z,15.53
2019-05-07T16:12:58.164Z,15.71
2019-05-07T16:16:12.108Z,15.81
2019-05-07T16:19:27.289Z,15.98
2019-05-07T16:22:44.520Z,16.72
2019-05-07T16:25:58.197Z,17.16
2019-05-07T16:29:13.275Z,17.88
2019-05-07T16:32:27.039Z,18.20
2019-05-07T16:35:42.552Z,18.44
2019-05-07T16:38:56.194Z,18.29
2019-05-07T16:42:09.948Z,18.11
2019-05-07T16:45:23.590Z,17.87
2019-05-07T16:48:37.472Z,17.48
2019-05-07T16:51:52.462Z,17.18
2019-05-07T16:55:06.533Z,16.97
2019-05-07T16:58:26.370Z,16.68
2019-05-07T17:01:40.021Z,16.53
2019-05-07T17:05:13.078Z,16.67
2019-05-07T17:08:31.866Z,16.87
2019-05-07T17:11:45.854Z,17.15
2019-05-07T17:14:59.682Z,17.54
2019-05-07T17:18:13.192Z,18.02
2019-05-07T17:21:26.715Z,18.27
2019-05-07T17:24:42.255Z,18.41
2019-05-07T17:27:55.853Z,18.16
2019-05-07T17:31:09.559Z,17.91
2019-05-07T17:34:23.102Z,17.41
2019-05-07T17:37:36.626Z,16.85
2019-05-07T17:40:52.178Z,16.40
2019-05-07T17:44:06.153Z,16.09
2019-05-07T17:47:21.838Z,15.75
2019-05-07T17:51:04.323Z,15.49
2019-05-07T17:54:17.998Z,15.22
2019-05-07T17:57:33.482Z,14.99
2019-05-07T18:00:49.317Z,14.74
2019-05-07T18:04:03.127Z,14.53
2019-05-07T18:07:16.656Z,14.26
2019-05-07T18:10:31.965Z,13.99
2019-05-07T18:13:45.874Z,13.77
2019-05-07T18:17:19.048Z,13.59
2019-05-07T18:20:32.910Z,13.44
2019-05-07T18:23:46.451Z,13.24
2019-05-07T18:27:01.911Z,12.97
2019-05-07T18:30:16.619Z,12.77
2019-05-07T18:33:52.471Z,12.60
2019-05-07T18:37:06.243Z,12.45
2019-05-07T18:40:20.592Z,12.20
2019-05-07T18:43:34.186Z,11.91
2019-05-07T18:46:47.815Z,11.57
2019-05-07T18:50:02.834Z,11.35
2019-05-07T18:53:16.561Z,11.23
2019-05-07T18:56:30.159Z,11.10
2019-05-07T18:59:43.654Z,10.95
2019-05-07T19:02:57.262Z,10.77
2019-05-07T19:06:13.147Z,10.53
2019-05-07T19:09:26.900Z,10.31
2019-05-07T19:12:42.060Z,10.01
2019-05-07T19:15:56.612Z,9.82
2019-05-07T19:19:12.321Z,9.63
2019-05-07T19:22:25.892Z,9.61
2019-05-07T19:25:41.900Z,9.56
2019-05-07T19:28:55.434Z,9.47
2019-05-07T19:32:12.102Z,9.42
2019-05-07T19:35:25.637Z,9.28
2019-05-07T19:38:39.231Z,9.19
2019-05-07T19:41:53.163Z,9.10
2019-05-07T19:45:06.861Z,8.81
2019-05-07T19:48:20.457Z,8.64
2019-05-07T19:51:33.957Z,8.62
2019-05-07T19:54:58.745Z,8.56
2019-05-07T19:58:05.285Z,8.52
2019-05-07T20:01:27.042Z,8.33
2019-05-07T20:04:42.647Z,8.25
2019-05-07T20:07:59.587Z,8.15
2019-05-07T20:11:17.684Z,8.09
2019-05-07T20:14:33.110Z,8.04
2019-05-07T20:17:46.865Z,7.91
2019-05-07T20:21:02.559Z,7.83
2019-05-07T20:24:15.985Z,7.72
2019-05-07T20:27:29.493Z,7.65
2019-05-07T20:30:43.340Z,7.61
2019-05-07T20:33:57.083Z,7.38
2019-05-07T20:37:12.722Z,7.29
2019-05-07T20:40:26.250Z,7.28
2019-05-07T20:43:39.756Z,7.23
2019-05-07T20:46:53.764Z,7.19
2019-05-07T20:50:07.601Z,7.05
2019-05-07T20:53:42.338Z,7.06
2019-05-07T20:57:02.250Z,7.14
2019-05-07T21:00:24.008Z,7.21
2019-05-07T21:03:37.502Z,7.20
2019-05-07T21:06:52.533Z,7.12
2019-05-07T21:10:06.580Z,7.14
2019-05-07T21:16:35.034Z,7.16
2019-05-07T21:19:48.627Z,7.06
2019-05-07T21:23:02.749Z,7.06
2019-05-07T21:26:16.267Z,7.09
2019-05-07T21:29:32.465Z,7.15
2019-05-07T21:32:45.545Z,7.14
2019-05-07T21:35:59.155Z,7.06
2019-05-07T21:39:13.197Z,7.01
2019-05-07T21:42:26.796Z,7.06
2019-05-07T21:45:42.325Z,7.11
2019-05-07T21:48:55.962Z,7.09
2019-05-07T21:52:09.437Z,7.04
2019-05-07T21:55:32.466Z,7.05
2019-05-07T21:58:54.105Z,7.06
2019-05-07T22:02:18.425Z,7.04
2019-05-07T22:05:31.949Z,6.88
2019-05-07T22:08:45.652Z,6.83
2019-05-07T22:11:59.238Z,6.84
2019-05-07T22:15:13.100Z,6.81
2019-05-07T22:18:26.569Z,6.79
2019-05-07T22:21:40.107Z,6.72
2019-05-07T22:24:53.589Z,6.61
2019-05-07T22:28:07.461Z,6.51
2019-05-07T22:31:44.184Z,6.42
2019-05-07T22:35:19.295Z,6.29
2019-05-07T22:38:32.895Z,6.22
2019-05-07T22:41:46.618Z,6.19
2019-05-07T22:45:02.623Z,6.17
2019-05-07T22:48:15.996Z,6.16
2019-05-07T22:51:29.476Z,6.14
2019-05-07T22:54:43.082Z,6.06
2019-05-07T22:58:04.728Z,6.04
2019-05-07T23:01:18.328Z,5.98
2019-05-07T23:04:32.656Z,5.91
2019-05-07T23:07:46.189Z,5.86
2019-05-07T23:10:59.690Z,5.83
2019-05-07T23:14:13.546Z,5.74
2019-05-07T23:17:27.321Z,5.73
2019-05-07T23:20:42.676Z,5.64
2019-05-07T23:23:56.492Z,5.62
2019-05-07T23:30:42.119Z,5.44
2019-05-07T23:33:55.642Z,5.28
2019-05-07T23:37:09.133Z,5.31
2019-05-07T23:40:30.452Z,5.32
2019-05-07T23:44:03.615Z,5.24
2019-05-07T23:47:17.213Z,5.08
2019-05-07T23:50:32.394Z,5.01
2019-05-07T23:53:46.398Z,4.89
2019-05-07T23:57:08.757Z,4.90
